sensor_id;sensor_type;location;lat;lon;timestamp;temperature;humidity
42031;DHT22;27709;52.036;5.906;2022-10-16T00:01:08;12.50;99.90
42031;DHT22;27709;52.036;5.906;2022-10-16T00:03:38;12.50;99.90
42031;DHT22;27709;52.036;5.906;2022-10-16T00:06:05;12.40;99.90
42031;DHT22;27709;52.036;5.906;2022-10-16T00:08:31;12.40;99.90
42031;DHT22;27709;52.036;5.906;2022-10-16T00:13:30;12.40;99.90
42031;DHT22;27709;52.036;5.906;2022-10-16T00:15:57;12.40;99.90
42031;DHT22;27709;52.036;5.906;2022-10-16T00:18:23;12.40;99.90
42031;DHT22;27709;52.036;5.906;2022-10-16T00:20:49;12.40;99.90
42031;DHT22;27709;52.036;5.906;2022-10-16T00:23:14;12.40;99.90
42031;DHT22;27709;52.036;5.906;2022-10-16T00:25:40;12.40;99.90
42031;DHT22;27709;52.036;5.906;2022-10-16T00:28:05;12.40;99.90
42031;DHT22;27709;52.036;5.906;2022-10-16T00:30:31;12.30;99.90
42031;DHT22;27709;52.036;5.906;2022-10-16T00:32:56;12.30;99.90
42031;DHT22;27709;52.036;5.906;2022-10-16T00:35:22;12.40;99.90
42031;DHT22;27709;52.036;5.906;2022-10-16T00:37:47;12.40;99.90
42031;DHT22;27709;52.036;5.906;2022-10-16T00:40:13;12.50;99.90
42031;DHT22;27709;52.036;5.906;2022-10-16T00:42:39;12.40;99.90
42031;DHT22;27709;52.036;5.906;2022-10-16T00:45:05;12.40;99.90
42031;DHT22;27709;52.036;5.906;2022-10-16T00:47:35;12.50;99.90
42031;DHT22;27709;52.036;5.906;2022-10-16T00:50:16;12.40;99.90
42031;DHT22;27709;52.036;5.906;2022-10-16T00:52:46;12.40;99.90
42031;DHT22;27709;52.036;5.906;2022-10-16T00:55:12;12.40;99.90
42031;DHT22;27709;52.036;5.906;2022-10-16T00:57:39;12.40;99.90
42031;DHT22;27709;52.036;5.906;2022-10-16T01:00:07;12.30;99.90
42031;DHT22;27709;52.036;5.906;2022-10-16T01:02:33;12.30;99.90
42031;DHT22;27709;52.036;5.906;2022-10-16T01:04:59;12.30;99.90
42031;DHT22;27709;52.036;5.906;2022-10-16T01:13:12;12.30;99.90
42031;DHT22;27709;52.036;5.906;2022-10-16T01:15:49;12.30;99.90
42031;DHT22;27709;52.036;5.906;2022-10-16T01:24:31;12.40;99.90
42031;DHT22;27709;52.036;5.906;2022-10-16T01:27:13;12.40;99.90
42031;DHT22;27709;52.036;5.906;2022-10-16T01:30:02;12.50;99.90
42031;DHT22;27709;52.036;5.906;2022-10-16T01:32:56;12.50;99.90
42031;DHT22;27709;52.036;5.906;2022-10-16T01:35:25;12.50;99.90
42031;DHT22;27709;52.036;5.906;2022-10-16T01:38:08;12.50;99.90
42031;DHT22;27709;52.036;5.906;2022-10-16T01:40:36;12.60;99.90
42031;DHT22;27709;52.036;5.906;2022-10-16T01:43:10;12.50;99.90
42031;DHT22;27709;52.036;5.906;2022-10-16T01:45:38;12.60;99.90
42031;DHT22;27709;52.036;5.906;2022-10-16T01:48:06;12.60;99.90
42031;DHT22;27709;52.036;5.906;2022-10-16T01:50:38;12.60;99.90
42031;DHT22;27709;52.036;5.906;2022-10-16T01:53:06;12.60;99.90
42031;DHT22;27709;52.036;5.906;2022-10-16T01:55:37;12.60;99.90
42031;DHT22;27709;52.036;5.906;2022-10-16T01:58:06;12.60;99.90
42031;DHT22;27709;52.036;5.906;2022-10-16T02:00:34;12.60;99.90
42031;DHT22;27709;52.036;5.906;2022-10-16T02:03:02;12.60;99.90
42031;DHT22;27709;52.036;5.906;2022-10-16T02:05:34;12.60;99.90
42031;DHT22;27709;52.036;5.906;2022-10-16T02:08:04;12.70;99.90
42031;DHT22;27709;52.036;5.906;2022-10-16T02:10:29;12.70;99.90
42031;DHT22;27709;52.036;5.906;2022-10-16T02:13:23;12.70;99.90
42031;DHT22;27709;52.036;5.906;2022-10-16T02:15:51;12.70;99.90
42031;DHT22;27709;52.036;5.906;2022-10-16T02:18:16;12.70;99.90
42031;DHT22;27709;52.036;5.906;2022-10-16T02:23:22;12.80;99.90
42031;DHT22;27709;52.036;5.906;2022-10-16T02:25:49;12.70;99.90
42031;DHT22;27709;52.036;5.906;2022-10-16T02:28:32;12.70;99.90
42031;DHT22;27709;52.036;5.906;2022-10-16T02:31:02;12.70;99.90
42031;DHT22;27709;52.036;5.906;2022-10-16T02:33:30;12.70;99.90
42031;DHT22;27709;52.036;5.906;2022-10-16T02:35:57;12.70;99.90
42031;DHT22;27709;52.036;5.906;2022-10-16T02:38:23;12.70;99.90
42031;DHT22;27709;52.036;5.906;2022-10-16T02:40:50;12.70;99.90
42031;DHT22;27709;52.036;5.906;2022-10-16T02:43:16;12.70;99.90
42031;DHT22;27709;52.036;5.906;2022-10-16T02:45:42;12.70;99.90
42031;DHT22;27709;52.036;5.906;2022-10-16T02:48:08;12.70;99.90
42031;DHT22;27709;52.036;5.906;2022-10-16T02:50:33;12.60;99.90
42031;DHT22;27709;52.036;5.906;2022-10-16T02:52:59;12.70;99.90
42031;DHT22;27709;52.036;5.906;2022-10-16T02:55:24;12.60;99.90
42031;DHT22;27709;52.036;5.906;2022-10-16T02:57:50;12.60;99.90
42031;DHT22;27709;52.036;5.906;2022-10-16T03:00:16;12.60;99.90
42031;DHT22;27709;52.036;5.906;2022-10-16T03:02:43;12.60;99.90
42031;DHT22;27709;52.036;5.906;2022-10-16T03:05:09;12.50;99.90
42031;DHT22;27709;52.036;5.906;2022-10-16T03:07:35;12.50;99.90
42031;DHT22;27709;52.036;5.906;2022-10-16T03:10:01;12.50;99.90
42031;DHT22;27709;52.036;5.906;2022-10-16T03:12:27;12.50;99.90
42031;DHT22;27709;52.036;5.906;2022-10-16T03:14:53;12.60;99.90
42031;DHT22;27709;52.036;5.906;2022-10-16T03:17:19;12.60;99.90
42031;DHT22;27709;52.036;5.906;2022-10-16T03:19:44;12.60;99.90
42031;DHT22;27709;52.036;5.906;2022-10-16T03:22:10;12.70;99.90
42031;DHT22;27709;52.036;5.906;2022-10-16T03:24:35;12.70;99.90
42031;DHT22;27709;52.036;5.906;2022-10-16T03:27:01;12.70;99.90
42031;DHT22;27709;52.036;5.906;2022-10-16T03:29:27;12.70;99.90
42031;DHT22;27709;52.036;5.906;2022-10-16T03:31:54;12.60;99.90
42031;DHT22;27709;52.036;5.906;2022-10-16T03:34:20;12.60;99.90
42031;DHT22;27709;52.036;5.906;2022-10-16T03:36:46;12.60;99.90
42031;DHT22;27709;52.036;5.906;2022-10-16T03:39:11;12.60;99.90
42031;DHT22;27709;52.036;5.906;2022-10-16T03:41:36;12.60;99.90
42031;DHT22;27709;52.036;5.906;2022-10-16T03:44:02;12.60;99.90
42031;DHT22;27709;52.036;5.906;2022-10-16T03:46:27;12.50;99.90
42031;DHT22;27709;52.036;5.906;2022-10-16T03:48:53;12.50;99.90
42031;DHT22;27709;52.036;5.906;2022-10-16T03:51:18;12.50;99.90
42031;DHT22;27709;52.036;5.906;2022-10-16T03:53:44;12.50;99.90
42031;DHT22;27709;52.036;5.906;2022-10-16T03:56:09;12.50;99.90
42031;DHT22;27709;52.036;5.906;2022-10-16T03:58:35;12.60;99.90
42031;DHT22;27709;52.036;5.906;2022-10-16T04:01:00;12.60;99.90
42031;DHT22;27709;52.036;5.906;2022-10-16T04:03:26;12.60;99.90
42031;DHT22;27709;52.036;5.906;2022-10-16T04:05:51;12.60;99.90
42031;DHT22;27709;52.036;5.906;2022-10-16T04:08:17;12.60;99.90
42031;DHT22;27709;52.036;5.906;2022-10-16T04:10:43;12.60;99.90
42031;DHT22;27709;52.036;5.906;2022-10-16T04:13:09;12.60;99.90
42031;DHT22;27709;52.036;5.906;2022-10-16T04:15:35;12.60;99.90
42031;DHT22;27709;52.036;5.906;2022-10-16T04:18:00;12.60;99.90
42031;DHT22;27709;52.036;5.906;2022-10-16T04:20:26;12.60;99.90
42031;DHT22;27709;52.036;5.906;2022-10-16T04:22:51;12.60;99.90
42031;DHT22;27709;52.036;5.906;2022-10-16T04:25:17;12.60;99.90
42031;DHT22;27709;52.036;5.906;2022-10-16T04:27:42;12.60;99.90
42031;DHT22;27709;52.036;5.906;2022-10-16T04:30:08;12.60;99.90
42031;DHT22;27709;52.036;5.906;2022-10-16T04:32:33;12.60;99.90
42031;DHT22;27709;52.036;5.906;2022-10-16T04:34:59;12.70;99.90
42031;DHT22;27709;52.036;5.906;2022-10-16T04:37:25;12.70;99.90
42031;DHT22;27709;52.036;5.906;2022-10-16T04:39:52;12.70;99.90
42031;DHT22;27709;52.036;5.906;2022-10-16T04:42:17;12.70;99.90
42031;DHT22;27709;52.036;5.906;2022-10-16T04:44:43;12.70;99.90
42031;DHT22;27709;52.036;5.906;2022-10-16T04:47:08;12.70;99.90
42031;DHT22;27709;52.036;5.906;2022-10-16T04:49:34;12.70;99.90
42031;DHT22;27709;52.036;5.906;2022-10-16T04:51:59;12.70;99.90
42031;DHT22;27709;52.036;5.906;2022-10-16T04:54:25;12.70;99.90
42031;DHT22;27709;52.036;5.906;2022-10-16T04:56:50;12.70;99.90
42031;DHT22;27709;52.036;5.906;2022-10-16T04:59:18;12.70;99.90
42031;DHT22;27709;52.036;5.906;2022-10-16T05:01:44;12.70;99.90
42031;DHT22;27709;52.036;5.906;2022-10-16T05:04:10;12.70;99.90
42031;DHT22;27709;52.036;5.906;2022-10-16T05:06:37;12.60;99.90
42031;DHT22;27709;52.036;5.906;2022-10-16T05:09:04;12.60;99.90
42031;DHT22;27709;52.036;5.906;2022-10-16T05:11:30;12.60;99.90
42031;DHT22;27709;52.036;5.906;2022-10-16T05:13:56;12.50;99.90
42031;DHT22;27709;52.036;5.906;2022-10-16T05:16:21;12.60;99.90
42031;DHT22;27709;52.036;5.906;2022-10-16T05:18:47;12.60;99.90
42031;DHT22;27709;52.036;5.906;2022-10-16T05:21:12;12.50;99.90
42031;DHT22;27709;52.036;5.906;2022-10-16T05:23:38;12.50;99.90
42031;DHT22;27709;52.036;5.906;2022-10-16T05:26:04;12.50;99.90
42031;DHT22;27709;52.036;5.906;2022-10-16T05:28:31;12.40;99.90
42031;DHT22;27709;52.036;5.906;2022-10-16T05:30:57;12.40;99.90
42031;DHT22;27709;52.036;5.906;2022-10-16T05:33:24;12.40;99.90
42031;DHT22;27709;52.036;5.906;2022-10-16T05:35:50;12.40;99.90
42031;DHT22;27709;52.036;5.906;2022-10-16T05:38:17;12.40;99.90
42031;DHT22;27709;52.036;5.906;2022-10-16T05:40:42;12.30;99.90
42031;DHT22;27709;52.036;5.906;2022-10-16T05:43:08;12.30;99.90
42031;DHT22;27709;52.036;5.906;2022-10-16T05:45:34;12.30;99.90
42031;DHT22;27709;52.036;5.906;2022-10-16T05:48:00;12.20;99.90
42031;DHT22;27709;52.036;5.906;2022-10-16T05:50:26;12.20;99.90
42031;DHT22;27709;52.036;5.906;2022-10-16T05:52:51;12.20;99.90
42031;DHT22;27709;52.036;5.906;2022-10-16T05:55:17;12.10;99.90
42031;DHT22;27709;52.036;5.906;2022-10-16T05:57:43;12.10;99.90
42031;DHT22;27709;52.036;5.906;2022-10-16T06:00:09;12.10;99.90
42031;DHT22;27709;52.036;5.906;2022-10-16T06:02:34;12.20;99.90
42031;DHT22;27709;52.036;5.906;2022-10-16T06:05:00;12.20;99.90
42031;DHT22;27709;52.036;5.906;2022-10-16T06:07:25;12.20;99.90
42031;DHT22;27709;52.036;5.906;2022-10-16T06:09:52;12.20;99.90
42031;DHT22;27709;52.036;5.906;2022-10-16T06:12:18;12.20;99.90
42031;DHT22;27709;52.036;5.906;2022-10-16T06:14:44;12.20;99.90
42031;DHT22;27709;52.036;5.906;2022-10-16T06:17:10;12.20;99.90
42031;DHT22;27709;52.036;5.906;2022-10-16T06:19:35;12.20;99.90
42031;DHT22;27709;52.036;5.906;2022-10-16T06:22:01;12.30;99.90
42031;DHT22;27709;52.036;5.906;2022-10-16T06:24:27;12.30;99.90
42031;DHT22;27709;52.036;5.906;2022-10-16T06:26:53;12.30;99.90
42031;DHT22;27709;52.036;5.906;2022-10-16T06:29:19;12.40;99.90
42031;DHT22;27709;52.036;5.906;2022-10-16T06:31:44;12.50;99.90
42031;DHT22;27709;52.036;5.906;2022-10-16T06:34:10;12.50;99.90
42031;DHT22;27709;52.036;5.906;2022-10-16T06:36:37;12.50;99.90
42031;DHT22;27709;52.036;5.906;2022-10-16T06:39:03;12.60;99.90
42031;DHT22;27709;52.036;5.906;2022-10-16T06:41:30;12.70;99.90
42031;DHT22;27709;52.036;5.906;2022-10-16T06:43:55;12.70;99.90
42031;DHT22;27709;52.036;5.906;2022-10-16T06:46:23;12.70;99.90
42031;DHT22;27709;52.036;5.906;2022-10-16T06:48:49;12.80;99.90
42031;DHT22;27709;52.036;5.906;2022-10-16T06:51:16;12.90;99.90
42031;DHT22;27709;52.036;5.906;2022-10-16T06:53:44;12.90;99.90
42031;DHT22;27709;52.036;5.906;2022-10-16T06:56:21;13.00;99.90
42031;DHT22;27709;52.036;5.906;2022-10-16T06:58:47;13.00;99.90
42031;DHT22;27709;52.036;5.906;2022-10-16T07:01:14;13.00;99.90
42031;DHT22;27709;52.036;5.906;2022-10-16T07:03:42;13.00;99.90
42031;DHT22;27709;52.036;5.906;2022-10-16T07:06:11;13.00;99.90
42031;DHT22;27709;52.036;5.906;2022-10-16T07:08:41;13.00;99.90
42031;DHT22;27709;52.036;5.906;2022-10-16T07:11:09;13.10;99.90
42031;DHT22;27709;52.036;5.906;2022-10-16T07:13:37;13.10;99.90
42031;DHT22;27709;52.036;5.906;2022-10-16T07:16:10;13.10;99.90
42031;DHT22;27709;52.036;5.906;2022-10-16T07:18:35;13.20;99.90
42031;DHT22;27709;52.036;5.906;2022-10-16T07:21:10;13.20;99.90
42031;DHT22;27709;52.036;5.906;2022-10-16T07:23:36;13.30;99.90
42031;DHT22;27709;52.036;5.906;2022-10-16T07:26:03;13.40;99.90
42031;DHT22;27709;52.036;5.906;2022-10-16T07:28:29;13.40;99.90
42031;DHT22;27709;52.036;5.906;2022-10-16T07:31:00;13.50;99.90
42031;DHT22;27709;52.036;5.906;2022-10-16T07:33:26;13.60;99.90
42031;DHT22;27709;52.036;5.906;2022-10-16T07:35:53;13.80;99.90
42031;DHT22;27709;52.036;5.906;2022-10-16T07:38:20;13.90;99.90
42031;DHT22;27709;52.036;5.906;2022-10-16T07:40:45;14.10;99.90
42031;DHT22;27709;52.036;5.906;2022-10-16T07:43:11;14.30;99.90
42031;DHT22;27709;52.036;5.906;2022-10-16T07:45:37;14.40;99.90
42031;DHT22;27709;52.036;5.906;2022-10-16T07:48:03;14.50;99.90
42031;DHT22;27709;52.036;5.906;2022-10-16T07:50:29;14.60;99.90
42031;DHT22;27709;52.036;5.906;2022-10-16T07:52:54;14.60;99.90
42031;DHT22;27709;52.036;5.906;2022-10-16T07:55:20;14.60;99.90
42031;DHT22;27709;52.036;5.906;2022-10-16T07:57:45;14.70;99.90
42031;DHT22;27709;52.036;5.906;2022-10-16T08:00:11;14.90;99.90
42031;DHT22;27709;52.036;5.906;2022-10-16T08:02:39;15.00;99.90
42031;DHT22;27709;52.036;5.906;2022-10-16T08:05:06;15.00;99.90
42031;DHT22;27709;52.036;5.906;2022-10-16T08:07:31;15.10;99.90
42031;DHT22;27709;52.036;5.906;2022-10-16T08:09:57;15.20;99.90
42031;DHT22;27709;52.036;5.906;2022-10-16T08:12:24;15.40;99.90
42031;DHT22;27709;52.036;5.906;2022-10-16T08:14:49;15.90;99.90
42031;DHT22;27709;52.036;5.906;2022-10-16T08:17:15;16.10;99.90
42031;DHT22;27709;52.036;5.906;2022-10-16T08:19:44;16.20;99.90
42031;DHT22;27709;52.036;5.906;2022-10-16T08:22:10;16.30;99.90
42031;DHT22;27709;52.036;5.906;2022-10-16T08:24:35;16.40;99.90
42031;DHT22;27709;52.036;5.906;2022-10-16T08:27:02;16.60;99.90
42031;DHT22;27709;52.036;5.906;2022-10-16T08:29:28;16.60;99.90
42031;DHT22;27709;52.036;5.906;2022-10-16T08:31:53;16.50;99.90
42031;DHT22;27709;52.036;5.906;2022-10-16T08:34:19;16.70;99.90
42031;DHT22;27709;52.036;5.906;2022-10-16T08:36:44;16.80;99.90
42031;DHT22;27709;52.036;5.906;2022-10-16T08:39:10;16.80;99.90
42031;DHT22;27709;52.036;5.906;2022-10-16T08:49:26;16.70;99.90
42031;DHT22;27709;52.036;5.906;2022-10-16T08:51:52;16.80;99.90
42031;DHT22;27709;52.036;5.906;2022-10-16T08:54:43;16.90;99.90
42031;DHT22;27709;52.036;5.906;2022-10-16T08:57:22;17.10;99.90
42031;DHT22;27709;52.036;5.906;2022-10-16T08:59:48;17.20;99.90
42031;DHT22;27709;52.036;5.906;2022-10-16T09:14:03;17.20;99.90
42031;DHT22;27709;52.036;5.906;2022-10-16T09:16:38;17.30;99.90
42031;DHT22;27709;52.036;5.906;2022-10-16T09:19:22;17.40;99.90
42031;DHT22;27709;52.036;5.906;2022-10-16T09:21:49;17.40;99.90
42031;DHT22;27709;52.036;5.906;2022-10-16T09:24:18;17.30;99.90
42031;DHT22;27709;52.036;5.906;2022-10-16T09:26:45;17.40;99.90
42031;DHT22;27709;52.036;5.906;2022-10-16T09:29:15;17.40;99.90
42031;DHT22;27709;52.036;5.906;2022-10-16T09:31:41;17.60;99.90
42031;DHT22;27709;52.036;5.906;2022-10-16T09:34:21;17.70;99.90
42031;DHT22;27709;52.036;5.906;2022-10-16T09:36:49;17.90;99.90
42031;DHT22;27709;52.036;5.906;2022-10-16T09:39:14;18.10;99.90
42031;DHT22;27709;52.036;5.906;2022-10-16T09:41:43;18.20;99.90
42031;DHT22;27709;52.036;5.906;2022-10-16T09:44:19;18.30;99.90
42031;DHT22;27709;52.036;5.906;2022-10-16T09:46:46;18.30;99.90
42031;DHT22;27709;52.036;5.906;2022-10-16T09:49:23;18.20;99.90
42031;DHT22;27709;52.036;5.906;2022-10-16T09:51:50;18.30;99.90
42031;DHT22;27709;52.036;5.906;2022-10-16T09:54:21;18.40;99.90
42031;DHT22;27709;52.036;5.906;2022-10-16T09:56:47;18.60;99.90
42031;DHT22;27709;52.036;5.906;2022-10-16T09:59:19;18.80;99.90
42031;DHT22;27709;52.036;5.906;2022-10-16T10:01:52;18.80;99.90
42031;DHT22;27709;52.036;5.906;2022-10-16T10:04:23;18.80;99.90
42031;DHT22;27709;52.036;5.906;2022-10-16T10:06:54;18.90;99.30
42031;DHT22;27709;52.036;5.906;2022-10-16T10:09:28;19.00;99.50
42031;DHT22;27709;52.036;5.906;2022-10-16T10:14:36;19.40;98.40
42031;DHT22;27709;52.036;5.906;2022-10-16T10:19:40;19.30;97.80
42031;DHT22;27709;52.036;5.906;2022-10-16T10:22:25;19.40;98.10
42031;DHT22;27709;52.036;5.906;2022-10-16T10:30:47;19.70;97.70
42031;DHT22;27709;52.036;5.906;2022-10-16T10:39:04;20.20;96.70
42031;DHT22;27709;52.036;5.906;2022-10-16T10:55:40;20.10;95.90
42031;DHT22;27709;52.036;5.906;2022-10-16T10:58:35;20.20;95.90
42031;DHT22;27709;52.036;5.906;2022-10-16T11:01:09;20.10;95.50
42031;DHT22;27709;52.036;5.906;2022-10-16T11:08:55;19.40;96.10
42031;DHT22;27709;52.036;5.906;2022-10-16T11:11:34;19.50;94.90
42031;DHT22;27709;52.036;5.906;2022-10-16T11:14:14;19.30;94.70
42031;DHT22;27709;52.036;5.906;2022-10-16T11:17:02;19.20;95.00
42031;DHT22;27709;52.036;5.906;2022-10-16T11:19:49;19.00;94.70
42031;DHT22;27709;52.036;5.906;2022-10-16T11:22:38;18.80;94.80
42031;DHT22;27709;52.036;5.906;2022-10-16T11:25:13;18.90;95.00
42031;DHT22;27709;52.036;5.906;2022-10-16T11:28:01;19.00;95.40
42031;DHT22;27709;52.036;5.906;2022-10-16T11:30:29;19.10;95.10
42031;DHT22;27709;52.036;5.906;2022-10-16T11:35:50;18.90;94.80
42031;DHT22;27709;52.036;5.906;2022-10-16T11:41:01;18.90;95.70
42031;DHT22;27709;52.036;5.906;2022-10-16T11:43:34;19.10;94.90
42031;DHT22;27709;52.036;5.906;2022-10-16T11:46:12;19.20;94.60
42031;DHT22;27709;52.036;5.906;2022-10-16T11:51:38;19.30;94.50
42031;DHT22;27709;52.036;5.906;2022-10-16T11:54:18;19.40;94.40
42031;DHT22;27709;52.036;5.906;2022-10-16T11:56:48;19.50;94.30
42031;DHT22;27709;52.036;5.906;2022-10-16T11:59:37;19.40;94.50
42031;DHT22;27709;52.036;5.906;2022-10-16T12:02:16;19.30;93.80
42031;DHT22;27709;52.036;5.906;2022-10-16T12:04:56;19.10;94.10
42031;DHT22;27709;52.036;5.906;2022-10-16T12:07:34;18.90;94.30
42031;DHT22;27709;52.036;5.906;2022-10-16T12:10:19;18.70;94.40
42031;DHT22;27709;52.036;5.906;2022-10-16T12:12:45;18.80;94.70
42031;DHT22;27709;52.036;5.906;2022-10-16T12:15:21;19.00;94.90
42031;DHT22;27709;52.036;5.906;2022-10-16T12:17:48;19.20;94.50
42031;DHT22;27709;52.036;5.906;2022-10-16T12:23:06;19.30;93.40
42031;DHT22;27709;52.036;5.906;2022-10-16T12:25:40;19.20;93.60
42031;DHT22;27709;52.036;5.906;2022-10-16T12:28:17;19.00;94.10
42031;DHT22;27709;52.036;5.906;2022-10-16T12:31:02;19.00;94.50
42031;DHT22;27709;52.036;5.906;2022-10-16T12:33:37;19.00;93.90
42031;DHT22;27709;52.036;5.906;2022-10-16T12:36:16;19.20;94.20
42031;DHT22;27709;52.036;5.906;2022-10-16T12:38:52;19.20;93.40
42031;DHT22;27709;52.036;5.906;2022-10-16T12:41:44;19.20;93.00
42031;DHT22;27709;52.036;5.906;2022-10-16T12:44:25;19.30;93.10
42031;DHT22;27709;52.036;5.906;2022-10-16T12:46:53;19.40;92.40
42031;DHT22;27709;52.036;5.906;2022-10-16T12:49:30;19.40;92.70
42031;DHT22;27709;52.036;5.906;2022-10-16T12:51:57;19.40;92.60
42031;DHT22;27709;52.036;5.906;2022-10-16T13:00:16;19.50;92.20
42031;DHT22;27709;52.036;5.906;2022-10-16T13:05:48;19.50;92.80
42031;DHT22;27709;52.036;5.906;2022-10-16T13:08:33;19.50;92.60
42031;DHT22;27709;52.036;5.906;2022-10-16T13:19:40;19.40;91.50
42031;DHT22;27709;52.036;5.906;2022-10-16T13:25:17;19.30;91.80
42031;DHT22;27709;52.036;5.906;2022-10-16T13:27:54;19.30;91.70
42031;DHT22;27709;52.036;5.906;2022-10-16T13:30:28;19.20;91.70
42031;DHT22;27709;52.036;5.906;2022-10-16T13:35:35;19.20;92.20
42031;DHT22;27709;52.036;5.906;2022-10-16T13:38:14;19.10;92.30
42031;DHT22;27709;52.036;5.906;2022-10-16T13:41:04;19.10;92.70
42031;DHT22;27709;52.036;5.906;2022-10-16T13:43:39;19.20;92.90
42031;DHT22;27709;52.036;5.906;2022-10-16T13:46:14;19.20;92.70
42031;DHT22;27709;52.036;5.906;2022-10-16T13:48:40;19.20;92.80
42031;DHT22;27709;52.036;5.906;2022-10-16T13:51:13;19.20;92.50
42031;DHT22;27709;52.036;5.906;2022-10-16T13:53:39;19.20;92.50
42031;DHT22;27709;52.036;5.906;2022-10-16T13:56:10;19.10;92.30
42031;DHT22;27709;52.036;5.906;2022-10-16T13:58:36;19.10;92.40
42031;DHT22;27709;52.036;5.906;2022-10-16T14:01:11;19.00;92.50
42031;DHT22;27709;52.036;5.906;2022-10-16T14:03:39;19.00;92.60
42031;DHT22;27709;52.036;5.906;2022-10-16T14:06:12;19.00;92.80
42031;DHT22;27709;52.036;5.906;2022-10-16T14:08:43;19.00;92.80
42031;DHT22;27709;52.036;5.906;2022-10-16T14:11:09;19.00;92.70
42031;DHT22;27709;52.036;5.906;2022-10-16T14:13:43;18.90;93.00
42031;DHT22;27709;52.036;5.906;2022-10-16T14:16:10;18.90;93.00
42031;DHT22;27709;52.036;5.906;2022-10-16T14:18:38;18.80;93.20
42031;DHT22;27709;52.036;5.906;2022-10-16T14:21:07;18.90;93.40
42031;DHT22;27709;52.036;5.906;2022-10-16T14:23:39;18.80;93.60
42031;DHT22;27709;52.036;5.906;2022-10-16T14:28:39;18.80;93.90
42031;DHT22;27709;52.036;5.906;2022-10-16T14:31:34;18.70;94.20
42031;DHT22;27709;52.036;5.906;2022-10-16T14:34:01;18.70;93.90
42031;DHT22;27709;52.036;5.906;2022-10-16T14:36:28;18.70;94.10
42031;DHT22;27709;52.036;5.906;2022-10-16T14:39:06;18.80;94.20
42031;DHT22;27709;52.036;5.906;2022-10-16T14:41:49;18.80;94.20
42031;DHT22;27709;52.036;5.906;2022-10-16T14:44:17;18.80;94.30
42031;DHT22;27709;52.036;5.906;2022-10-16T14:46:43;18.70;94.40
42031;DHT22;27709;52.036;5.906;2022-10-16T14:51:35;18.70;94.30
42031;DHT22;27709;52.036;5.906;2022-10-16T14:54:01;18.60;94.50
42031;DHT22;27709;52.036;5.906;2022-10-16T14:56:31;18.50;94.60
42031;DHT22;27709;52.036;5.906;2022-10-16T14:58:58;18.40;94.80
42031;DHT22;27709;52.036;5.906;2022-10-16T15:01:23;18.30;95.00
42031;DHT22;27709;52.036;5.906;2022-10-16T15:03:50;18.20;95.10
42031;DHT22;27709;52.036;5.906;2022-10-16T15:06:17;18.10;95.30
42031;DHT22;27709;52.036;5.906;2022-10-16T15:08:43;18.10;95.30
42031;DHT22;27709;52.036;5.906;2022-10-16T15:11:19;18.00;95.50
42031;DHT22;27709;52.036;5.906;2022-10-16T15:13:45;18.00;95.70
42031;DHT22;27709;52.036;5.906;2022-10-16T15:16:13;18.00;95.70
42031;DHT22;27709;52.036;5.906;2022-10-16T15:18:39;18.00;95.70
42031;DHT22;27709;52.036;5.906;2022-10-16T15:21:05;18.00;95.70
42031;DHT22;27709;52.036;5.906;2022-10-16T15:23:31;18.00;96.10
42031;DHT22;27709;52.036;5.906;2022-10-16T15:25:57;17.90;96.00
42031;DHT22;27709;52.036;5.906;2022-10-16T15:28:23;17.90;96.30
42031;DHT22;27709;52.036;5.906;2022-10-16T15:30:54;17.80;96.60
42031;DHT22;27709;52.036;5.906;2022-10-16T15:33:25;17.80;97.00
42031;DHT22;27709;52.036;5.906;2022-10-16T15:35:58;17.70;97.30
42031;DHT22;27709;52.036;5.906;2022-10-16T15:38:24;17.60;97.50
42031;DHT22;27709;52.036;5.906;2022-10-16T15:40:50;17.50;97.80
42031;DHT22;27709;52.036;5.906;2022-10-16T15:43:16;17.40;98.10
42031;DHT22;27709;52.036;5.906;2022-10-16T15:45:42;17.40;98.40
42031;DHT22;27709;52.036;5.906;2022-10-16T15:48:11;17.30;98.60
42031;DHT22;27709;52.036;5.906;2022-10-16T15:50:37;17.20;99.10
42031;DHT22;27709;52.036;5.906;2022-10-16T15:53:03;17.10;99.10
42031;DHT22;27709;52.036;5.906;2022-10-16T15:55:29;17.00;99.40
42031;DHT22;27709;52.036;5.906;2022-10-16T15:57:55;17.00;99.80
42031;DHT22;27709;52.036;5.906;2022-10-16T16:00:20;16.90;99.90
42031;DHT22;27709;52.036;5.906;2022-10-16T16:02:52;16.90;99.90
42031;DHT22;27709;52.036;5.906;2022-10-16T16:05:18;16.80;99.90
42031;DHT22;27709;52.036;5.906;2022-10-16T16:07:43;16.70;99.90
42031;DHT22;27709;52.036;5.906;2022-10-16T16:10:10;16.70;99.90
42031;DHT22;27709;52.036;5.906;2022-10-16T16:12:37;16.60;99.90
42031;DHT22;27709;52.036;5.906;2022-10-16T16:15:04;16.50;99.90
42031;DHT22;27709;52.036;5.906;2022-10-16T16:17:31;16.40;99.90
42031;DHT22;27709;52.036;5.906;2022-10-16T16:19:57;16.40;99.90
42031;DHT22;27709;52.036;5.906;2022-10-16T16:22:22;16.30;99.90
42031;DHT22;27709;52.036;5.906;2022-10-16T16:24:48;16.30;99.90
42031;DHT22;27709;52.036;5.906;2022-10-16T16:27:13;16.20;99.90
42031;DHT22;27709;52.036;5.906;2022-10-16T16:29:39;16.20;99.90
42031;DHT22;27709;52.036;5.906;2022-10-16T16:32:05;16.10;99.90
42031;DHT22;27709;52.036;5.906;2022-10-16T16:34:30;16.00;99.90
42031;DHT22;27709;52.036;5.906;2022-10-16T16:36:56;16.00;99.90
42031;DHT22;27709;52.036;5.906;2022-10-16T16:39:23;15.90;99.90
42031;DHT22;27709;52.036;5.906;2022-10-16T16:41:48;15.90;99.90
42031;DHT22;27709;52.036;5.906;2022-10-16T16:44:15;15.80;99.90
42031;DHT22;27709;52.036;5.906;2022-10-16T16:46:42;15.70;99.90
42031;DHT22;27709;52.036;5.906;2022-10-16T16:49:13;15.60;99.90
42031;DHT22;27709;52.036;5.906;2022-10-16T16:51:40;15.60;99.90
42031;DHT22;27709;52.036;5.906;2022-10-16T16:54:07;15.60;99.90
42031;DHT22;27709;52.036;5.906;2022-10-16T16:56:33;15.50;99.90
42031;DHT22;27709;52.036;5.906;2022-10-16T16:59:00;15.50;99.90
42031;DHT22;27709;52.036;5.906;2022-10-16T17:01:27;15.50;99.90
42031;DHT22;27709;52.036;5.906;2022-10-16T17:03:54;15.50;99.90
42031;DHT22;27709;52.036;5.906;2022-10-16T17:06:25;15.50;99.90
42031;DHT22;27709;52.036;5.906;2022-10-16T17:08:50;15.50;99.90
42031;DHT22;27709;52.036;5.906;2022-10-16T17:11:22;15.40;99.90
42031;DHT22;27709;52.036;5.906;2022-10-16T17:13:49;15.30;99.90
42031;DHT22;27709;52.036;5.906;2022-10-16T17:16:16;15.20;99.90
42031;DHT22;27709;52.036;5.906;2022-10-16T17:18:41;15.20;99.90
42031;DHT22;27709;52.036;5.906;2022-10-16T17:21:08;15.10;99.90
42031;DHT22;27709;52.036;5.906;2022-10-16T17:23:35;15.10;99.90
42031;DHT22;27709;52.036;5.906;2022-10-16T17:26:12;15.00;99.90
42031;DHT22;27709;52.036;5.906;2022-10-16T17:28:38;15.00;99.90
42031;DHT22;27709;52.036;5.906;2022-10-16T17:31:17;14.90;99.90
42031;DHT22;27709;52.036;5.906;2022-10-16T17:33:44;14.90;99.90